Time;durP1;ratioP1;P1;durP2;ratioP2;P2;SDS_P1;SDS_P2;PMS_P1;PMS_P2;Temp;Humidity;BMP_temperature;BMP_pressure;BME280_temperature;BME280_humidity;BME280_pressure;Samples;Min_cycle;Max_cycle;Signal;HPM_P1;HPM_P2
2021/04/28 00:01:20;;;;;;;5.95;1.25;;;;;;;22.78;42.36;97186.03;5031238;28;20222;-59
2021/04/28 00:03:46;;;;;;;2.80;1.10;;;;;;;22.76;42.49;97177.41;5035107;28;20246;-60
2021/04/28 00:06:13;;;;;;;3.40;1.10;;;;;;;22.77;42.32;97176.41;5028371;28;20337;-59
2021/04/28 00:08:40;;;;;;;1.60;1.08;;;;;;;22.76;42.70;97180.09;5034310;28;20264;-58
2021/04/28 00:11:06;;;;;;;3.17;1.17;;;;;;;22.76;42.80;97184.59;5037938;28;20630;-59
2021/04/28 00:13:33;;;;;;;4.93;1.23;;;;;;;22.77;42.70;97175.59;5032192;28;20220;-58
2021/04/28 00:15:59;;;;;;;4.20;1.10;;;;;;;22.75;42.58;97178.44;5029728;28;20223;-60
2021/04/28 00:18:26;;;;;;;5.03;1.27;;;;;;;22.74;42.26;97176.78;5035263;28;20298;-58
2021/04/28 00:20:52;;;;;;;3.63;1.30;;;;;;;22.75;43.15;97180.28;5040849;28;20208;-59
2021/04/28 00:23:18;;;;;;;4.97;1.15;;;;;;;22.75;42.40;97183.78;5043011;28;20239;-58
2021/04/28 00:25:45;;;;;;;3.90;0.85;;;;;;;22.74;42.21;97166.13;5039409;28;20329;-60
2021/04/28 00:28:12;;;;;;;2.22;0.93;;;;;;;22.73;42.37;97169.81;5038259;28;20210;-61
2021/04/28 00:30:39;;;;;;;2.60;1.00;;;;;;;22.74;42.89;97171.47;5036370;28;21006;-57
2021/04/28 00:33:05;;;;;;;2.17;1.02;;;;;;;22.71;42.22;97161.19;5032342;28;20219;-58
2021/04/28 00:35:32;;;;;;;1.50;1.00;;;;;;;22.73;42.20;97159.16;5037626;28;20711;-56
2021/04/28 00:37:59;;;;;;;2.17;1.20;;;;;;;22.73;43.14;97164.47;5034160;28;20212;-59
2021/04/28 00:40:28;;;;;;;2.22;1.05;;;;;;;22.71;42.82;97159.34;5040210;28;20294;-60
2021/04/28 00:42:56;;;;;;;2.40;1.15;;;;;;;22.71;42.43;97159.34;5034326;28;20270;-58
2021/04/28 00:45:25;;;;;;;4.45;1.25;;;;;;;22.71;43.02;97163.84;5036383;28;20336;-59
2021/04/28 00:47:51;;;;;;;2.45;1.13;;;;;;;22.71;42.86;97156.69;5038963;28;20600;-56
2021/04/28 00:50:20;;;;;;;2.50;1.20;;;;;;;22.72;42.18;97160.19;5037994;28;20775;-59
2021/04/28 00:52:47;;;;;;;4.57;1.20;;;;;;;22.71;42.52;97154.00;5038715;28;20203;-60
2021/04/28 00:55:14;;;;;;;2.85;1.15;;;;;;;22.70;43.15;97152.38;5036378;28;20223;-60
2021/04/28 00:57:41;;;;;;;1.88;0.98;;;;;;;22.70;42.53;97154.22;5030723;28;20651;-61
2021/04/28 01:00:11;;;;;;;3.13;1.15;;;;;;;22.69;42.93;97145.41;5031969;28;20216;-58
2021/04/28 01:02:37;;;;;;;2.20;1.05;;;;;;;22.69;42.69;97149.91;5041117;28;20207;-58
2021/04/28 01:05:06;;;;;;;3.55;1.00;;;;;;;22.69;43.17;97148.06;5034310;28;20227;-59
2021/04/28 01:07:33;;;;;;;3.22;1.10;;;;;;;22.70;42.62;97148.91;5031449;28;20793;-57
2021/04/28 01:09:59;;;;;;;2.92;1.10;;;;;;;22.69;43.13;97142.72;5040764;28;20366;-59
2021/04/28 01:12:26;;;;;;;1.48;0.90;;;;;;;22.70;42.51;97143.56;5038343;28;20289;-61
2021/04/28 01:14:52;;;;;;;3.35;1.00;;;;;;;22.68;42.37;97140.25;5037992;28;20674;-58
2021/04/28 01:17:19;;;;;;;2.30;1.40;;;;;;;22.68;42.39;97141.09;5030890;28;20218;-58
2021/04/28 01:19:46;;;;;;;1.77;1.00;;;;;;;22.68;42.66;97140.25;5035942;28;20744;-58
2021/04/28 01:22:13;;;;;;;6.07;1.35;;;;;;;22.67;42.74;97136.78;5044739;28;20199;-59
2021/04/28 01:24:40;;;;;;;4.80;0.95;;;;;;;22.67;42.82;97139.44;5031075;28;20242;-60
2021/04/28 01:27:11;;;;;;;1.52;0.98;;;;;;;22.65;43.66;97136.16;5042333;28;20207;-61
2021/04/28 01:29:37;;;;;;;2.38;1.05;;;;;;;22.66;43.24;97131.66;5035243;28;20278;-56
2021/04/28 01:32:05;;;;;;;1.70;1.00;;;;;;;22.66;42.85;97137.78;5035664;28;20579;-59
2021/04/28 01:34:32;;;;;;;3.00;0.98;;;;;;;22.64;42.55;97125.69;5042582;28;20302;-58
2021/04/28 01:36:58;;;;;;;2.28;1.10;;;;;;;22.66;43.21;97134.31;5031593;28;20714;-59
2021/04/28 01:39:24;;;;;;;4.70;1.17;;;;;;;22.65;43.06;97136.16;5035152;28;20219;-59
2021/04/28 01:41:52;;;;;;;6.13;1.02;;;;;;;22.66;42.96;97136.97;5042248;28;20200;-58
2021/04/28 01:44:21;;;;;;;2.33;0.95;;;;;;;22.65;43.37;97138.81;5041194;28;20228;-58
2021/04/28 01:46:49;;;;;;;2.47;1.02;;;;;;;22.66;43.45;97139.63;5043369;28;20205;-61
2021/04/28 01:49:16;;;;;;;2.38;1.17;;;;;;;22.66;43.64;97140.44;5032350;28;20203;-56
2021/04/28 01:51:43;;;;;;;3.05;1.08;;;;;;;22.65;42.88;97140.66;5038875;28;20726;-61
2021/04/28 01:54:13;;;;;;;4.18;1.23;;;;;;;22.63;43.04;97135.53;5038787;28;20231;-60
2021/04/28 01:56:42;;;;;;;3.15;1.10;;;;;;;22.63;42.92;97137.34;5043354;28;20667;-61
2021/04/28 01:59:09;;;;;;;6.25;1.13;;;;;;;22.63;43.11;97137.34;5039712;28;20555;-57
2021/04/28 02:01:36;;;;;;;3.67;1.10;;;;;;;22.63;43.36;97138.19;5039206;28;20599;-58
2021/04/28 02:04:02;;;;;;;5.05;0.90;;;;;;;22.63;42.78;97138.19;5042888;28;20309;-61
2021/04/28 02:06:29;;;;;;;3.40;0.90;;;;;;;22.63;43.63;97137.34;5035353;28;20260;-56
2021/04/28 02:08:55;;;;;;;3.70;1.20;;;;;;;22.63;42.68;97132.03;5039601;28;20203;-62
2021/04/28 02:11:21;;;;;;;3.30;1.02;;;;;;;22.61;43.00;97132.22;5044028;28;20575;-61
2021/04/28 02:13:49;;;;;;;4.28;1.05;;;;;;;22.61;43.71;97134.88;5035715;28;20330;-60
2021/04/28 02:16:17;;;;;;;1.75;1.00;;;;;;;22.61;43.43;97128.75;5044884;28;20429;-60
2021/04/28 02:18:43;;;;;;;2.33;1.17;;;;;;;22.60;43.33;97127.09;5039372;28;20680;-61
2021/04/28 02:21:11;;;;;;;4.93;0.90;;;;;;;22.60;43.11;97119.09;5037424;28;20214;-61
2021/04/28 02:23:40;;;;;;;1.48;0.70;;;;;;;22.62;43.50;97130.41;5041446;28;20270;-61
2021/04/28 02:26:06;;;;;;;5.85;1.35;;;;;;;22.61;43.47;97118.91;5039386;28;20201;-60
2021/04/28 02:28:32;;;;;;;2.45;1.20;;;;;;;22.61;43.45;97120.75;5036140;28;20314;-61
2021/04/28 02:30:59;;;;;;;2.45;0.77;;;;;;;22.60;43.26;97119.94;5030874;28;20215;-60
2021/04/28 02:33:26;;;;;;;1.90;1.05;;;;;;;22.61;43.18;97120.75;5046219;28;20528;-60
2021/04/28 02:35:55;;;;;;;2.63;0.90;;;;;;;22.60;43.04;97116.44;5035964;28;20206;-58
2021/04/28 02:38:26;;;;;;;4.35;1.23;;;;;;;22.60;43.25;97119.09;5034881;28;20298;-59
2021/04/28 02:40:54;;;;;;;2.72;1.20;;;;;;;22.60;43.62;97124.41;5031236;28;20263;-59
2021/04/28 02:43:21;;;;;;;2.55;1.13;;;;;;;22.59;43.69;97120.94;5045615;28;20261;-59
2021/04/28 02:45:49;;;;;;;1.52;0.82;;;;;;;22.59;42.85;97115.63;5038549;28;20203;-56
2021/04/28 02:48:17;;;;;;;2.67;1.13;;;;;;;22.59;43.88;97115.63;5041444;28;20294;-58
2021/04/28 02:50:44;;;;;;;4.85;1.00;;;;;;;22.59;43.55;97122.78;5044008;28;20604;-58
2021/04/28 02:53:14;;;;;;;2.78;1.13;;;;;;;22.59;43.64;97120.13;5043122;28;20212;-59
2021/04/28 02:55:41;;;;;;;4.97;0.98;;;;;;;22.59;43.34;97120.13;5046205;28;20640;-59
2021/04/28 02:58:08;;;;;;;3.70;1.27;;;;;;;22.54;43.27;97110.88;5033034;28;20311;-58
2021/04/28 03:00:35;;;;;;;2.83;0.98;;;;;;;22.54;43.44;97113.53;5032785;28;20223;-59
2021/04/28 03:03:01;;;;;;;4.60;1.33;;;;;;;22.55;43.91;97114.38;5034109;28;20199;-58
2021/04/28 03:05:28;;;;;;;3.75;1.08;;;;;;;22.55;43.26;97114.38;5034146;28;20305;-57
2021/04/28 03:07:55;;;;;;;2.75;1.10;;;;;;;22.55;43.36;97109.03;5036451;28;20659;-59
2021/04/28 03:10:22;;;;;;;3.35;0.95;;;;;;;22.54;43.95;97108.19;5036904;28;20360;-58
2021/04/28 03:12:48;;;;;;;6.03;1.33;;;;;;;22.56;43.67;97109.84;5036251;28;20220;-59
2021/04/28 03:15:17;;;;;;;3.22;1.10;;;;;;;22.53;42.76;97109.22;5028811;28;20315;-59
2021/04/28 03:17:44;;;;;;;4.10;1.08;;;;;;;22.55;43.78;97101.06;5034484;28;20247;-59
2021/04/28 03:20:12;;;;;;;3.45;1.10;;;;;;;22.53;43.35;97101.25;5046037;28;20237;-59
2021/04/28 03:22:39;;;;;;;3.65;1.10;;;;;;;22.56;43.79;97107.19;5044405;28;20212;-59
2021/04/28 03:25:07;;;;;;;2.25;0.75;;;;;;;22.54;42.81;97096.72;5041637;28;20226;-60
2021/04/28 03:27:33;;;;;;;3.70;1.00;;;;;;;22.51;43.53;97103.25;5035064;28;20230;-59
2021/04/28 03:30:00;;;;;;;2.67;1.15;;;;;;;22.52;43.25;97104.91;5040160;28;20545;-61
2021/04/28 03:32:26;;;;;;;4.53;1.10;;;;;;;22.53;43.77;97103.06;5040496;28;20841;-59
2021/04/28 03:34:52;;;;;;;4.32;0.98;;;;;;;22.52;43.13;97102.25;5035078;28;20217;-59
2021/04/28 03:37:18;;;;;;;2.03;1.00;;;;;;;22.56;44.23;97109.84;5040778;28;20256;-60
2021/04/28 03:39:44;;;;;;;3.67;1.00;;;;;;;22.52;43.23;97102.25;5039424;28;20220;-58
2021/04/28 03:42:13;;;;;;;2.95;0.80;;;;;;;22.56;43.96;97105.34;5039005;28;20207;-59
2021/04/28 03:44:39;;;;;;;2.70;1.00;;;;;;;22.59;43.39;97104.16;5037804;28;20266;-60
2021/04/28 03:47:05;;;;;;;3.22;0.95;;;;;;;22.61;43.35;97105.59;5038310;28;20211;-60
2021/04/28 03:49:32;;;;;;;3.00;1.10;;;;;;;22.62;43.94;97111.75;5043557;28;20296;-59
2021/04/28 03:51:58;;;;;;;3.50;1.10;;;;;;;22.64;43.50;97107.06;5047080;28;20208;-59
2021/04/28 03:54:24;;;;;;;3.63;1.10;;;;;;;22.65;44.06;97103.34;5032898;28;20232;-60
2021/04/28 03:56:50;;;;;;;3.00;1.10;;;;;;;22.65;43.76;97098.88;5035091;28;20280;-59
2021/04/28 03:59:18;;;;;;;3.40;1.13;;;;;;;22.69;43.89;97112.63;5035347;28;20223;-60
2021/04/28 04:01:44;;;;;;;3.20;0.98;;;;;;;22.69;43.81;97109.94;5031119;28;20668;-59
2021/04/28 04:04:11;;;;;;;2.83;1.13;;;;;;;22.69;43.89;97115.28;5037768;28;20227;-57
2021/04/28 04:06:37;;;;;;;2.38;0.95;;;;;;;22.70;44.01;97114.28;5033816;28;20213;-59
2021/04/28 04:09:05;;;;;;;4.57;1.38;;;;;;;22.71;43.54;97119.38;5037816;28;20298;-59
2021/04/28 04:11:31;;;;;;;1.48;0.93;;;;;;;22.72;44.13;97115.72;5033866;28;20698;-59
2021/04/28 04:13:57;;;;;;;2.00;0.95;;;;;;;22.72;43.62;97114.91;5038620;28;20250;-60
2021/04/28 04:16:25;;;;;;;1.90;0.98;;;;;;;22.74;43.72;97120.84;5038626;28;20204;-61
2021/04/28 04:18:51;;;;;;;4.47;1.02;;;;;;;22.75;43.73;97119.84;5040834;28;20238;-60
2021/04/28 04:21:17;;;;;;;1.77;0.80;;;;;;;22.75;43.89;97125.16;5042120;28;20213;-61
2021/04/28 04:23:43;;;;;;;4.82;1.08;;;;;;;22.75;44.28;97127.84;5037796;28;20314;-54
2021/04/28 04:26:09;;;;;;;3.28;0.90;;;;;;;22.76;44.58;97126.78;5030254;28;20204;-61
2021/04/28 04:28:35;;;;;;;5.40;0.85;;;;;;;22.77;43.89;97133.78;5027634;28;20218;-59
2021/04/28 04:31:01;;;;;;;4.85;0.90;;;;;;;22.77;43.58;97132.97;5032191;28;20198;-58
2021/04/28 04:33:28;;;;;;;1.73;0.93;;;;;;;22.79;43.90;97130.94;5033496;28;20204;-52
2021/04/28 04:35:54;;;;;;;6.53;1.27;;;;;;;22.80;44.66;97133.41;5028623;28;20214;-60
2021/04/28 04:38:20;;;;;;;4.78;1.00;;;;;;;22.81;44.05;97135.03;5030266;28;20203;-61
2021/04/28 04:40:46;;;;;;;3.10;1.10;;;;;;;22.82;44.39;97125.22;5035408;28;20223;-59
2021/04/28 04:43:13;;;;;;;2.10;1.00;;;;;;;22.81;44.76;97127.03;5046442;28;20211;-61
2021/04/28 04:45:39;;;;;;;2.67;1.08;;;;;;;22.82;43.91;97128.69;5041391;28;20306;-60
2021/04/28 04:48:07;;;;;;;3.03;1.10;;;;;;;22.82;44.36;97128.69;5041105;28;20221;-60
2021/04/28 04:50:34;;;;;;;3.17;0.80;;;;;;;22.81;43.72;97132.38;5041026;28;20294;-60
2021/04/28 04:53:01;;;;;;;1.88;0.88;;;;;;;22.83;44.22;97129.50;5028177;28;20302;-60
2021/04/28 04:55:27;;;;;;;1.65;0.75;;;;;;;22.81;44.60;97124.38;5042394;28;20228;-60
2021/04/28 04:57:53;;;;;;;4.35;1.20;;;;;;;22.81;43.85;97129.69;5042408;28;20679;-61
2021/04/28 05:00:21;;;;;;;2.35;1.10;;;;;;;22.83;44.00;97126.84;5039882;28;20747;-59
2021/04/28 05:02:47;;;;;;;2.22;1.10;;;;;;;22.84;44.50;97129.31;5035408;28;20677;-59
2021/04/28 05:05:14;;;;;;;6.35;0.88;;;;;;;22.85;44.22;97141.63;5034508;28;20227;-62
2021/04/28 05:07:41;;;;;;;3.33;1.00;;;;;;;22.87;43.97;97136.09;5039857;28;20229;-56
2021/04/28 05:10:10;;;;;;;2.63;0.95;;;;;;;22.86;43.42;97135.25;5044480;28;20302;-59
2021/04/28 05:12:36;;;;;;;5.05;1.10;;;;;;;22.87;43.85;97136.09;5030811;28;20429;-60
2021/04/28 05:15:04;;;;;;;2.05;0.93;;;;;;;22.88;43.88;97140.41;5034598;28;20276;-62
2021/04/28 05:17:30;;;;;;;1.60;1.00;;;;;;;22.89;42.91;97132.22;5006191;28;20232;-60
2021/04/28 05:19:56;;;;;;;2.17;0.90;;;;;;;22.90;43.06;97138.38;5033972;28;20219;-60
2021/04/28 05:22:23;;;;;;;5.25;1.08;;;;;;;22.83;43.47;97135.69;5029428;28;20264;-61
2021/04/28 05:24:50;;;;;;;9.32;1.58;;;;;;;22.86;44.36;97143.25;5030458;28;20227;-60
2021/04/28 05:27:17;;;;;;;26.13;3.28;;;;;;;22.90;44.30;97139.22;5030406;28;20203;-59
2021/04/28 05:29:43;;;;;;;28.20;2.85;;;;;;;22.91;45.22;97140.88;5033628;28;20269;-61
2021/04/28 05:32:09;;;;;;;66.00;7.30;;;;;;;22.94;46.00;97133.50;5031267;28;20199;-67
2021/04/28 05:34:36;;;;;;;24.50;3.15;;;;;;;23.00;46.11;97132.69;5028258;28;20359;-63
2021/04/28 05:37:02;;;;;;;24.33;3.70;;;;;;;23.08;45.03;97135.22;5029678;28;20214;-63
2021/04/28 05:39:28;;;;;;;20.00;3.20;;;;;;;23.13;44.45;97132.78;5036132;28;20278;-62
2021/04/28 05:41:55;;;;;;;23.35;3.38;;;;;;;23.17;45.07;97134.06;5039597;28;20231;-60
2021/04/28 05:44:21;;;;;;;15.73;2.58;;;;;;;23.18;43.54;97140.22;5032363;28;20626;-60
2021/04/28 05:46:48;;;;;;;9.45;2.58;;;;;;;23.18;44.42;97133.06;5032180;28;20200;-60
2021/04/28 05:49:14;;;;;;;17.02;2.17;;;;;;;23.17;44.03;97130.59;5036314;28;20549;-60
2021/04/28 05:51:40;;;;;;;10.73;1.98;;;;;;;23.18;43.42;97146.38;5033101;28;20219;-58
2021/04/28 05:54:07;;;;;;;8.13;1.70;;;;;;;23.18;43.88;97142.88;5033813;28;20312;-59
2021/04/28 05:56:36;;;;;;;7.30;1.67;;;;;;;23.20;42.77;97141.66;5026868;28;20954;-60
2021/04/28 05:59:03;;;;;;;13.32;2.42;;;;;;;23.23;43.31;97137.78;5036042;28;20325;-57
2021/04/28 06:01:30;;;;;;;12.77;2.15;;;;;;;23.25;43.58;97141.91;5037450;28;20695;-61
2021/04/28 06:03:56;;;;;;;4.63;1.70;;;;;;;23.27;43.51;97133.72;5032599;28;20289;-59
2021/04/28 06:06:22;;;;;;;12.82;1.85;;;;;;;23.28;43.56;97141.50;5039133;28;20294;-62
2021/04/28 06:08:49;;;;;;;4.50;1.65;;;;;;;23.28;42.88;97141.50;5041368;28;20214;-64
2021/04/28 06:11:15;;;;;;;6.05;1.92;;;;;;;23.33;42.67;97137.41;5031823;28;20269;-61
2021/04/28 06:13:41;;;;;;;5.75;1.85;;;;;;;23.26;43.82;97132.91;5037429;28;20306;-60
2021/04/28 06:16:09;;;;;;;9.55;2.00;;;;;;;23.27;45.18;97134.53;5038025;28;20583;-60
2021/04/28 06:18:35;;;;;;;13.57;2.33;;;;;;;23.24;45.82;97129.56;5035486;28;20628;-58
2021/04/28 06:21:01;;;;;;;18.75;2.92;;;;;;;23.28;45.35;97130.00;5038503;28;20224;-59
2021/04/28 06:23:27;;;;;;;22.75;2.63;;;;;;;23.39;44.99;97131.31;5038761;28;20313;-59
2021/04/28 06:25:53;;;;;;;14.82;3.38;;;;;;;23.39;44.38;97131.31;5032252;28;20317;-62
2021/04/28 06:28:19;;;;;;;9.18;2.40;;;;;;;23.40;44.90;97130.28;5038562;28;20207;-60
2021/04/28 06:30:45;;;;;;;9.88;2.28;;;;;;;23.40;44.65;97133.78;5040238;28;20281;-59
2021/04/28 06:33:12;;;;;;;12.10;2.78;;;;;;;23.42;44.50;97134.38;5041364;28;20204;-64
2021/04/28 06:35:38;;;;;;;11.75;2.60;;;;;;;23.42;44.00;97138.91;5043784;28;20254;-63
2021/04/28 06:38:05;;;;;;;9.85;2.30;;;;;;;23.41;43.22;97137.25;5035480;28;20239;-65
2021/04/28 06:40:31;;;;;;;11.32;2.47;;;;;;;23.41;42.86;97139.91;5036694;28;20326;-60
2021/04/28 06:42:57;;;;;;;5.45;2.33;;;;;;;23.42;43.72;97130.91;5032372;28;20239;-64
2021/04/28 06:45:23;;;;;;;11.43;2.30;;;;;;;23.42;42.69;97131.72;5030193;28;20227;-65
2021/04/28 06:47:49;;;;;;;7.15;2.20;;;;;;;23.45;43.39;97130.50;5035325;28;20643;-64
2021/04/28 06:50:16;;;;;;;9.93;2.35;;;;;;;23.44;42.89;97139.53;5043564;28;20207;-63
2021/04/28 06:52:44;;;;;;;8.13;2.40;;;;;;;23.42;42.84;97125.56;5033568;28;20302;-64
2021/04/28 06:55:12;;;;;;;10.10;2.30;;;;;;;23.43;42.75;97128.03;5041661;28;20234;-65
2021/04/28 06:57:38;;;;;;;6.68;2.22;;;;;;;23.44;43.41;97134.19;5037863;28;20344;-64
2021/04/28 07:00:07;;;;;;;15.02;2.55;;;;;;;23.50;43.74;97128.06;5035035;28;20323;-59
2021/04/28 07:02:33;;;;;;;13.38;3.25;;;;;;;23.43;42.97;97127.19;5035869;28;20576;-62
2021/04/28 07:04:59;;;;;;;19.27;3.20;;;;;;;23.39;42.85;97125.97;5044245;28;20642;-57
2021/04/28 07:07:26;;;;;;;7.50;2.10;;;;;;;23.39;42.41;97125.97;5031123;28;20207;-59
2021/04/28 07:09:52;;;;;;;11.75;2.80;;;;;;;23.36;43.76;97126.34;5034364;28;20286;-60
2021/04/28 07:12:20;;;;;;;12.27;2.47;;;;;;;23.37;43.01;97123.50;5040530;28;20234;-61
2021/04/28 07:14:46;;;;;;;9.73;2.40;;;;;;;23.39;43.19;97128.63;5034753;28;20238;-62
2021/04/28 07:17:12;;;;;;;6.30;2.15;;;;;;;23.37;43.75;97128.00;5035569;28;20236;-63
2021/04/28 07:19:38;;;;;;;9.45;1.98;;;;;;;23.41;44.07;97129.25;5043312;28;20224;-61
2021/04/28 07:22:05;;;;;;;10.27;2.00;;;;;;;23.45;44.30;97117.19;5032671;28;20207;-63
2021/04/28 07:24:32;;;;;;;6.60;1.90;;;;;;;23.46;43.64;97126.81;5039315;28;20673;-61
2021/04/28 07:26:58;;;;;;;6.28;2.28;;;;;;;23.45;43.55;97125.19;5035812;28;20222;-63
2021/04/28 07:29:24;;;;;;;6.57;1.85;;;;;;;23.47;44.24;97123.13;5034785;28;20275;-62
2021/04/28 07:31:50;;;;;;;10.68;2.17;;;;;;;23.49;43.80;97118.41;5035096;28;20262;-61
2021/04/28 07:34:16;;;;;;;8.38;1.80;;;;;;;23.50;43.70;97128.06;5033212;28;20235;-61
2021/04/28 07:36:43;;;;;;;4.10;1.45;;;;;;;23.51;44.23;97131.56;5042779;28;20210;-59
2021/04/28 07:39:11;;;;;;;11.68;1.90;;;;;;;23.52;44.41;97130.53;5040446;28;20206;-62
2021/04/28 07:41:38;;;;;;;6.43;1.63;;;;;;;23.52;44.38;97130.53;5039598;28;20207;-64
2021/04/28 07:44:04;;;;;;;5.05;1.73;;;;;;;23.53;44.32;97127.69;5037382;28;20700;-62
2021/04/28 07:46:32;;;;;;;5.00;1.60;;;;;;;23.50;44.20;97133.41;5036616;28;20223;-62
2021/04/28 07:49:03;;;;;;;8.93;1.95;;;;;;;23.50;44.17;97122.72;5047339;28;20743;-62
2021/04/28 07:51:29;;;;;;;8.23;1.67;;;;;;;23.51;43.89;97124.38;5035073;28;20245;-58
2021/04/28 07:53:55;;;;;;;8.48;2.03;;;;;;;23.51;43.74;97126.22;5033686;28;20227;-62
2021/04/28 07:56:22;;;;;;;4.55;1.40;;;;;;;23.50;44.00;97127.22;5029018;28;20236;-61
2021/04/28 07:58:49;;;;;;;4.10;1.40;;;;;;;23.50;44.25;97119.22;5042935;28;20215;-61
2021/04/28 08:01:15;;;;;;;3.15;1.38;;;;;;;23.50;44.85;97122.72;5034672;28;20806;-61
2021/04/28 08:03:41;;;;;;;5.70;1.92;;;;;;;23.48;43.75;97123.94;5033230;28;20266;-61
2021/04/28 08:06:07;;;;;;;8.25;1.80;;;;;;;23.50;43.76;97117.41;5036886;28;20215;-63
2021/04/28 08:08:33;;;;;;;3.42;1.80;;;;;;;23.49;44.32;97123.75;5035163;28;20671;-60
2021/04/28 08:11:00;;;;;;;8.32;1.77;;;;;;;23.49;43.84;97123.75;5035405;28;20282;-60
2021/04/28 08:13:26;;;;;;;7.72;1.60;;;;;;;23.48;44.61;97119.41;5038387;28;20315;-60
2021/04/28 08:15:54;;;;;;;5.50;1.38;;;;;;;23.49;44.98;97118.41;5042496;28;20702;-60
2021/04/28 08:18:21;;;;;;;6.80;1.67;;;;;;;23.48;44.28;97115.94;5046071;28;20211;-59
2021/04/28 08:20:47;;;;;;;4.03;1.35;;;;;;;23.46;44.46;97119.66;5031324;28;20672;-58
2021/04/28 08:23:14;;;;;;;7.10;1.75;;;;;;;23.49;44.52;97121.06;5035022;28;20238;-64
2021/04/28 08:25:40;;;;;;;4.43;1.55;;;;;;;23.49;43.75;97121.06;5032172;28;20257;-59
2021/04/28 08:28:06;;;;;;;4.50;1.85;;;;;;;23.47;44.90;97123.13;5031854;28;20246;-60
2021/04/28 08:30:32;;;;;;;8.88;1.58;;;;;;;23.48;44.16;97114.09;5040298;28;20530;-58
2021/04/28 08:32:59;;;;;;;8.32;1.40;;;;;;;23.47;44.28;97109.78;5044300;28;20290;-58
2021/04/28 08:35:26;;;;;;;3.63;1.50;;;;;;;23.46;44.51;97110.81;5041638;28;20230;-58
2021/04/28 08:37:52;;;;;;;6.35;1.45;;;;;;;23.46;44.49;97116.97;5038107;28;20577;-61
2021/04/28 08:40:20;;;;;;;2.55;1.35;;;;;;;23.47;44.34;97109.78;5038890;28;20234;-55
2021/04/28 08:42:46;;;;;;;4.15;1.65;;;;;;;23.45;44.73;97110.00;5032662;28;20243;-61
2021/04/28 08:45:14;;;;;;;7.15;1.60;;;;;;;23.45;44.57;97107.31;5032842;28;20220;-59
2021/04/28 08:47:42;;;;;;;9.55;1.58;;;;;;;23.44;43.62;97099.53;5036995;28;20200;-59
2021/04/28 08:50:10;;;;;;;4.35;1.65;;;;;;;23.43;43.49;97097.84;5039820;28;20440;-60
2021/04/28 08:52:37;;;;;;;5.07;1.73;;;;;;;23.43;44.38;97100.53;5041869;28;20203;-60
2021/04/28 08:55:06;;;;;;;3.60;1.40;;;;;;;23.43;43.90;97095.19;5041135;28;20257;-56
2021/04/28 08:57:32;;;;;;;2.97;1.30;;;;;;;23.42;44.31;97089.03;5039743;28;20223;-58
2021/04/28 08:59:59;;;;;;;7.28;1.58;;;;;;;23.41;44.54;97090.06;5036242;28;20317;-59
2021/04/28 09:02:26;;;;;;;4.75;1.63;;;;;;;23.41;43.89;97089.25;5037180;28;20210;-58
2021/04/28 09:05:06;;;;;;;7.80;1.77;;;;;;;23.46;43.96;97084.97;5041899;28;20557;-58
2021/04/28 09:07:34;;;;;;;4.25;1.35;;;;;;;23.44;43.70;97087.00;5037773;28;20667;-63
2021/04/28 09:10:03;;;;;;;5.47;1.65;;;;;;;23.45;43.66;97082.50;5035171;28;20278;-58
2021/04/28 09:12:29;;;;;;;2.72;1.50;;;;;;;23.45;44.62;97086.00;5037598;28;20602;-58
2021/04/28 09:14:55;;;;;;;5.85;1.42;;;;;;;23.46;43.77;97087.66;5031541;28;20224;-59
2021/04/28 09:17:22;;;;;;;4.05;1.27;;;;;;;23.46;44.22;97089.47;5027102;28;20723;-58
2021/04/28 09:19:54;;;;;;;6.00;1.63;;;;;;;23.46;44.74;97084.13;5047231;28;21033;-58
2021/04/28 09:22:21;;;;;;;4.32;1.30;;;;;;;23.47;44.58;97075.13;5034850;28;20211;-58
2021/04/28 09:24:50;;;;;;;4.13;1.40;;;;;;;23.50;43.63;97087.22;5032009;28;20230;-60
2021/04/28 09:27:27;;;;;;;5.22;1.38;;;;;;;23.49;44.91;97085.59;5033989;28;20220;-60
2021/04/28 09:29:53;;;;;;;3.75;1.63;;;;;;;23.50;44.22;97077.38;5032487;28;20732;-63
2021/04/28 09:32:20;;;;;;;4.78;1.50;;;;;;;23.50;43.66;97085.41;5035237;28;20298;-58
2021/04/28 09:34:46;;;;;;;9.70;1.52;;;;;;;23.48;43.72;97086.59;5033236;28;20224;-58
2021/04/28 09:37:13;;;;;;;4.85;1.42;;;;;;;23.44;44.39;97075.50;5043407;28;20227;-61
2021/04/28 09:39:45;;;;;;;6.53;1.80;;;;;;;23.43;44.07;97074.69;5034682;28;20310;-56
2021/04/28 09:42:14;;;;;;;3.55;1.13;;;;;;;23.45;44.66;97077.16;5039196;28;20211;-57
2021/04/28 09:44:46;;;;;;;2.88;1.23;;;;;;;23.45;43.76;97077.16;5041526;28;20338;-59
2021/04/28 09:47:15;;;;;;;5.53;1.50;;;;;;;23.45;44.22;97066.50;5035537;28;20763;-58
2021/04/28 09:49:53;;;;;;;3.80;1.45;;;;;;;23.45;44.36;97063.84;5040493;28;20649;-56
2021/04/28 09:52:23;;;;;;;4.57;1.40;;;;;;;23.47;43.59;97067.13;5035391;28;20203;-60
2021/04/28 09:54:51;;;;;;;4.80;1.85;;;;;;;23.47;44.33;97064.44;5033111;28;20259;-57
2021/04/28 09:57:32;;;;;;;3.33;1.25;;;;;;;23.47;43.71;97069.78;5035628;28;20648;-58
2021/04/28 09:59:58;;;;;;;4.13;1.48;;;;;;;23.47;43.83;97067.13;5037109;28;20746;-59
2021/04/28 10:02:27;;;;;;;3.90;1.58;;;;;;;23.45;44.51;97050.50;5037480;28;20612;-60
2021/04/28 10:04:54;;;;;;;4.35;1.58;;;;;;;23.49;43.65;97051.72;5035565;28;20220;-58
2021/04/28 10:07:24;;;;;;;3.08;1.45;;;;;;;23.46;43.64;97052.97;5038313;28;20220;-57
2021/04/28 10:09:51;;;;;;;3.45;1.30;;;;;;;23.46;44.08;97057.47;5040243;28;20207;-59
2021/04/28 10:12:20;;;;;;;3.60;1.40;;;;;;;23.46;43.64;97046.78;5040831;28;20207;-56
2021/04/28 10:14:46;;;;;;;9.00;1.60;;;;;;;23.48;44.56;97047.41;5041248;28;20251;-58
2021/04/28 10:17:13;;;;;;;3.00;1.65;;;;;;;23.46;44.46;97052.97;5042670;28;20238;-59
2021/04/28 10:19:39;;;;;;;3.33;1.40;;;;;;;23.49;44.68;97045.59;5033883;28;20239;-57
2021/04/28 10:22:08;;;;;;;4.00;1.40;;;;;;;23.48;44.43;97043.94;5035509;28;20203;-58
2021/04/28 10:24:36;;;;;;;3.67;1.40;;;;;;;23.47;44.66;97043.13;5037960;28;20219;-59
2021/04/28 10:27:03;;;;;;;3.35;1.48;;;;;;;23.49;43.89;97034.91;5036539;28;20200;-60
2021/04/28 10:29:33;;;;;;;3.92;1.20;;;;;;;23.49;43.72;97033.06;5042713;28;20231;-58
2021/04/28 10:31:59;;;;;;;4.45;1.35;;;;;;;23.46;44.26;97031.63;5040699;28;20405;-59
2021/04/28 10:34:29;;;;;;;2.10;1.20;;;;;;;23.48;43.92;97031.41;5044918;28;20227;-57
2021/04/28 10:36:57;;;;;;;24.55;3.30;;;;;;;23.49;44.39;97025.06;5040165;28;20222;-60
2021/04/28 10:39:25;;;;;;;13.40;2.10;;;;;;;23.51;44.62;97020.34;5045778;28;20246;-62
2021/04/28 10:41:53;;;;;;;5.95;1.92;;;;;;;23.48;44.16;97025.25;5037771;28;20215;-59
2021/04/28 10:44:40;;;;;;;10.90;2.20;;;;;;;23.42;43.77;97035.72;5040506;28;20246;-61
2021/04/28 10:47:40;;;;;;;5.90;1.85;;;;;;;23.45;44.77;97023.84;5043946;28;20371;-61
2021/04/28 10:50:22;;;;;;;12.15;1.85;;;;;;;23.44;44.58;97016.84;5028836;28;20208;-59
2021/04/28 10:52:53;;;;;;;10.60;1.88;;;;;;;23.49;45.04;97018.91;5028809;28;20204;-63
2021/04/28 10:55:49;;;;;;;17.42;2.42;;;;;;;23.42;42.44;97022.38;5036837;28;20266;-61
2021/04/28 10:58:37;;;;;;;22.98;2.40;;;;;;;23.48;45.07;97018.06;5039623;28;20215;-59
2021/04/28 11:01:23;;;;;;;19.45;3.03;;;;;;;23.48;44.09;97014.59;5039350;28;20985;-65
2021/04/28 11:03:52;;;;;;;14.00;2.20;;;;;;;23.43;44.53;97009.84;5046297;28;20219;-61
2021/04/28 11:06:37;;;;;;;12.85;1.88;;;;;;;23.41;44.25;97012.72;5041994;28;20251;-61
2021/04/28 11:09:12;;;;;;;19.27;3.17;;;;;;;23.38;42.67;97004.31;5036161;28;20226;-62
2021/04/28 11:11:42;;;;;;;10.13;3.45;;;;;;;23.27;38.21;97009.19;5042150;28;20242;-59
2021/04/28 11:14:49;;;;;;;20.20;5.00;;;;;;;23.23;37.55;97007.13;5041607;28;20422;-59
2021/04/28 11:17:24;;;;;;;15.77;3.70;;;;;;;23.22;37.23;97005.50;5038543;28;20199;-59
2021/04/28 11:19:51;;;;;;;18.77;4.63;;;;;;;23.21;35.96;97003.84;5046926;28;20239;-59
2021/04/28 11:22:21;;;;;;;9.02;3.63;;;;;;;23.33;37.95;96999.59;5046542;28;20210;-61
2021/04/28 11:24:57;;;;;;;16.67;4.35;;;;;;;23.36;37.93;96987.69;5041446;28;20219;-62
2021/04/28 11:27:57;;;;;;;8.10;3.63;;;;;;;23.33;36.96;96994.25;5040851;28;20281;-63
2021/04/28 11:30:35;;;;;;;8.73;3.63;;;;;;;23.36;36.68;96988.50;4985961;28;20430;-62
2021/04/28 11:33:21;;;;;;;6.65;3.42;;;;;;;23.37;35.79;96989.34;4992265;28;20208;-58
2021/04/28 11:36:08;;;;;;;10.70;3.90;;;;;;;23.36;36.68;96993.84;5021899;28;20216;-57